Time;durP1;ratioP1;P1;durP2;ratioP2;P2;SDS_P1;SDS_P2;PMS_P1;PMS_P2;Temp;Humidity;BMP_temperature;BMP_pressure;BME280_temperature;BME280_humidity;BME280_pressure;Samples;Min_cycle;Max_cycle;Signal;HPM_P1;HPM_P2
2022/09/12 00:01:05;;;;;;;10.73;8.65;;;;;;;;;;5030648;28;20069;-79
2022/09/12 00:03:31;;;;;;;9.88;8.80;;;;;;;;;;5012521;28;20038;-79
2022/09/12 00:05:57;;;;;;;10.93;8.50;;;;;;;;;;5030606;28;20250;-78
2022/09/12 00:08:23;;;;;;;10.98;8.50;;;;;;;;;;5037379;28;20038;-78
2022/09/12 00:10:49;;;;;;;11.13;9.20;;;;;;;;;;5038477;28;20026;-78
2022/09/12 00:13:15;;;;;;;10.90;9.30;;;;;;;;;;5030808;28;20053;-79
2022/09/12 00:15:42;;;;;;;10.25;9.15;;;;;;;;;;5020289;28;20128;-79
2022/09/12 00:18:09;;;;;;;12.20;9.52;;;;;;;;;;5030147;28;20097;-79
2022/09/12 00:20:35;;;;;;;11.40;9.60;;;;;;;;;;5037367;28;20042;-79
2022/09/12 00:23:01;;;;;;;11.48;9.55;;;;;;;;;;5036187;28;20050;-79
2022/09/12 00:25:29;;;;;;;10.75;9.65;;;;;;;;;;5036341;28;20028;-79
2022/09/12 00:27:55;;;;;;;11.15;9.93;;;;;;;;;;5033166;28;20060;-79
2022/09/12 00:30:21;;;;;;;11.55;10.43;;;;;;;;;;5039532;28;20046;-79
2022/09/12 00:32:49;;;;;;;11.52;10.32;;;;;;;;;;5040441;28;20061;-79
2022/09/12 00:35:15;;;;;;;16.20;11.20;;;;;;;;;;5021830;28;20073;-79
2022/09/12 00:37:41;;;;;;;11.75;10.48;;;;;;;;;;5026203;28;20042;-79
2022/09/12 00:40:07;;;;;;;11.68;10.57;;;;;;;;;;5023955;28;20047;-79
2022/09/12 00:42:33;;;;;;;13.15;10.95;;;;;;;;;;5039698;28;20022;-79
2022/09/12 00:44:59;;;;;;;13.02;11.73;;;;;;;;;;5028869;28;20069;-78
2022/09/12 00:47:27;;;;;;;13.60;11.45;;;;;;;;;;5030011;28;20035;-79
2022/09/12 00:50:13;;;;;;;13.10;11.63;;;;;;;;;;5036066;28;20060;-79
2022/09/12 00:52:42;;;;;;;13.27;11.85;;;;;;;;;;5037441;28;20042;-79
2022/09/12 00:55:11;;;;;;;13.63;10.93;;;;;;;;;;5017337;28;20046;-78
2022/09/12 00:57:44;;;;;;;16.95;12.23;;;;;;;;;;5033712;28;20049;-78
2022/09/12 01:00:14;;;;;;;14.13;11.77;;;;;;;;;;5035409;28;20048;-79
2022/09/12 01:02:42;;;;;;;12.93;11.52;;;;;;;;;;5024183;28;20060;-78
2022/09/12 01:05:09;;;;;;;13.48;11.45;;;;;;;;;;5020077;28;20046;-78
2022/09/12 01:07:36;;;;;;;13.48;12.13;;;;;;;;;;5039712;28;20037;-79
2022/09/12 01:10:03;;;;;;;13.05;11.65;;;;;;;;;;5034998;28;20030;-78
2022/09/12 01:12:30;;;;;;;13.00;11.70;;;;;;;;;;5040713;28;20046;-78
2022/09/12 01:14:56;;;;;;;12.95;11.38;;;;;;;;;;5030202;28;20097;-78
2022/09/12 01:17:24;;;;;;;13.77;12.25;;;;;;;;;;5035668;28;20045;-78
2022/09/12 01:19:56;;;;;;;15.52;13.95;;;;;;;;;;5038692;28;20077;-79
2022/09/12 01:22:25;;;;;;;16.40;14.80;;;;;;;;;;5023081;28;20038;-79
2022/09/12 01:24:55;;;;;;;16.00;14.35;;;;;;;;;;5032033;28;20053;-79
2022/09/12 01:27:33;;;;;;;17.30;14.68;;;;;;;;;;5030830;28;20070;-79
2022/09/12 01:30:07;;;;;;;17.13;15.43;;;;;;;;;;5037612;28;20077;-79
2022/09/12 01:32:42;;;;;;;17.52;15.68;;;;;;;;;;5037348;28;20067;-79
2022/09/12 01:35:20;;;;;;;19.88;17.83;;;;;;;;;;5024243;28;20052;-78
2022/09/12 01:37:55;;;;;;;20.42;18.33;;;;;;;;;;5037791;28;20077;-78
2022/09/12 01:40:33;;;;;;;21.02;18.65;;;;;;;;;;5033761;28;20042;-78
2022/09/12 01:43:07;;;;;;;21.27;19.08;;;;;;;;;;5030571;28;20033;-79
2022/09/12 01:45:47;;;;;;;22.52;20.13;;;;;;;;;;5035836;28;20077;-79
2022/09/12 01:48:17;;;;;;;24.15;20.27;;;;;;;;;;5036241;28;20037;-79
2022/09/12 01:50:50;;;;;;;22.80;20.55;;;;;;;;;;5026719;28;20102;-79
2022/09/12 01:53:20;;;;;;;24.13;21.63;;;;;;;;;;5017383;28;20026;-79
2022/09/12 01:55:58;;;;;;;22.48;20.38;;;;;;;;;;5030572;28;20042;-79
2022/09/12 01:58:33;;;;;;;23.17;20.85;;;;;;;;;;5034798;28;20026;-79
2022/09/12 02:01:06;;;;;;;25.33;22.17;;;;;;;;;;5036848;28;20061;-79
2022/09/12 02:03:52;;;;;;;25.10;22.58;;;;;;;;;;5020779;28;20056;-79
2022/09/12 02:06:22;;;;;;;25.52;22.95;;;;;;;;;;5029453;28;20057;-79
2022/09/12 02:08:52;;;;;;;26.77;23.98;;;;;;;;;;5037710;28;20042;-79
2022/09/12 02:11:19;;;;;;;27.40;24.67;;;;;;;;;;5036631;28;20100;-79
2022/09/12 02:13:59;;;;;;;26.75;23.95;;;;;;;;;;5020426;28;20064;-79
2022/09/12 02:16:29;;;;;;;26.98;24.27;;;;;;;;;;5026055;28;20064;-79
2022/09/12 02:18:57;;;;;;;27.55;24.75;;;;;;;;;;5019980;28;20073;-79
2022/09/12 02:21:24;;;;;;;30.88;27.75;;;;;;;;;;5033190;28;20014;-79
2022/09/12 02:23:56;;;;;;;26.38;23.38;;;;;;;;;;5038657;28;20201;-79
2022/09/12 02:26:25;;;;;;;28.90;26.00;;;;;;;;;;5034506;28;20085;-80
2022/09/12 02:28:51;;;;;;;29.05;26.00;;;;;;;;;;5013039;28;20431;-79
2022/09/12 02:31:22;;;;;;;28.70;25.63;;;;;;;;;;5036911;28;20065;-79
2022/09/12 02:33:48;;;;;;;25.95;23.27;;;;;;;;;;5028809;28;20049;-79
2022/09/12 02:36:15;;;;;;;27.65;24.80;;;;;;;;;;5027900;28;20041;-79
2022/09/12 02:38:44;;;;;;;27.52;24.63;;;;;;;;;;5035624;28;20033;-79
2022/09/12 02:41:11;;;;;;;30.20;25.45;;;;;;;;;;5035464;28;20041;-79
2022/09/12 02:43:37;;;;;;;27.30;24.40;;;;;;;;;;5034782;28;20030;-79
2022/09/12 02:46:06;;;;;;;29.17;25.33;;;;;;;;;;5028297;28;20060;-79
2022/09/12 02:48:33;;;;;;;28.58;25.48;;;;;;;;;;5036281;28;20057;-79
2022/09/12 02:51:00;;;;;;;28.48;25.48;;;;;;;;;;5039991;28;20060;-79
2022/09/12 02:53:27;;;;;;;30.73;25.92;;;;;;;;;;5038046;28;20081;-79
2022/09/12 02:55:53;;;;;;;29.13;25.77;;;;;;;;;;5036755;28;20038;-79
2022/09/12 02:58:22;;;;;;;31.35;26.83;;;;;;;;;;5017438;28;20428;-79
2022/09/12 03:00:58;;;;;;;30.27;26.70;;;;;;;;;;5015416;28;20043;-80
2022/09/12 03:03:35;;;;;;;31.48;27.10;;;;;;;;;;5018855;28;20076;-80
2022/09/12 03:06:02;;;;;;;30.17;26.80;;;;;;;;;;5032401;28;20041;-80
2022/09/12 03:08:32;;;;;;;30.27;26.63;;;;;;;;;;5030362;28;20117;-80
2022/09/12 03:11:17;;;;;;;30.63;27.38;;;;;;;;;;5035389;28;20072;-80
2022/09/12 03:13:52;;;;;;;31.65;28.27;;;;;;;;;;5034113;28;20052;-80
2022/09/12 03:16:24;;;;;;;30.67;27.48;;;;;;;;;;5037646;28;20018;-80
2022/09/12 03:19:00;;;;;;;30.90;27.65;;;;;;;;;;5036669;28;20029;-80
2022/09/12 03:21:36;;;;;;;32.05;27.38;;;;;;;;;;5034106;28;20034;-80
2022/09/12 03:24:14;;;;;;;31.42;27.58;;;;;;;;;;5036549;28;20029;-79
2022/09/12 03:26:44;;;;;;;31.65;28.35;;;;;;;;;;5020225;28;20033;-79
2022/09/12 03:29:10;;;;;;;30.25;27.05;;;;;;;;;;5027361;28;20061;-79
2022/09/12 03:31:38;;;;;;;32.70;28.65;;;;;;;;;;5009340;28;20062;-79
2022/09/12 03:34:04;;;;;;;29.92;26.73;;;;;;;;;;5016968;28;20039;-79
2022/09/12 03:36:30;;;;;;;30.67;27.38;;;;;;;;;;5017005;28;20030;-79
2022/09/12 03:38:56;;;;;;;31.55;28.15;;;;;;;;;;5018696;28;20026;-78
2022/09/12 03:41:23;;;;;;;35.17;29.35;;;;;;;;;;5015474;28;20026;-78
2022/09/12 03:43:49;;;;;;;33.42;29.83;;;;;;;;;;4985659;28;20065;-79
2022/09/12 03:46:15;;;;;;;34.70;31.10;;;;;;;;;;5019461;28;20038;-78
2022/09/12 03:48:41;;;;;;;34.00;30.33;;;;;;;;;;5008204;28;20026;-79
2022/09/12 03:51:08;;;;;;;33.55;30.00;;;;;;;;;;5000883;28;20065;-79
2022/09/12 03:53:34;;;;;;;33.20;29.67;;;;;;;;;;5016514;28;20026;-79
2022/09/12 03:56:05;;;;;;;33.50;29.90;;;;;;;;;;5015755;28;20276;-79
2022/09/12 03:58:31;;;;;;;33.33;29.77;;;;;;;;;;5015951;28;20057;-79
2022/09/12 04:00:57;;;;;;;34.03;30.23;;;;;;;;;;5013008;28;20061;-79
2022/09/12 04:03:23;;;;;;;36.47;31.60;;;;;;;;;;5018544;28;20038;-79
2022/09/12 04:05:49;;;;;;;34.88;31.25;;;;;;;;;;5007175;28;20521;-79
2022/09/12 04:08:15;;;;;;;34.95;30.58;;;;;;;;;;5001427;28;20038;-79
2022/09/12 04:10:41;;;;;;;35.38;30.75;;;;;;;;;;5011965;28;20036;-79
2022/09/12 04:13:07;;;;;;;39.90;31.98;;;;;;;;;;5014532;28;20047;-79
2022/09/12 04:15:33;;;;;;;38.90;32.08;;;;;;;;;;5014415;28;20054;-79
2022/09/12 04:17:59;;;;;;;36.92;31.95;;;;;;;;;;5006353;28;20036;-80
2022/09/12 04:20:25;;;;;;;38.70;32.55;;;;;;;;;;5015131;28;20042;-80
2022/09/12 04:22:51;;;;;;;33.58;29.92;;;;;;;;;;5018361;28;20044;-79
2022/09/12 04:25:17;;;;;;;35.50;31.60;;;;;;;;;;5016480;28;20026;-80
2022/09/12 04:27:43;;;;;;;37.85;32.08;;;;;;;;;;5017821;28;20030;-80
2022/09/12 04:30:10;;;;;;;37.60;31.67;;;;;;;;;;5032946;28;20054;-80
2022/09/12 04:32:36;;;;;;;36.88;32.15;;;;;;;;;;5020883;28;20061;-80
2022/09/12 04:35:03;;;;;;;36.00;32.10;;;;;;;;;;5037116;28;20036;-80
2022/09/12 04:37:29;;;;;;;36.40;31.77;;;;;;;;;;5032129;28;20026;-79
2022/09/12 04:39:56;;;;;;;36.95;32.22;;;;;;;;;;5027980;28;20050;-80
2022/09/12 04:42:23;;;;;;;35.75;31.90;;;;;;;;;;5035122;28;20089;-79
2022/09/12 04:44:49;;;;;;;35.10;31.38;;;;;;;;;;5019152;28;20057;-79
2022/09/12 04:47:15;;;;;;;39.10;32.65;;;;;;;;;;5033377;28;20569;-79
2022/09/12 04:49:41;;;;;;;37.50;32.58;;;;;;;;;;5033468;28;20033;-79
2022/09/12 04:52:08;;;;;;;38.50;34.33;;;;;;;;;;5032530;28;20424;-79
2022/09/12 04:54:34;;;;;;;35.75;31.95;;;;;;;;;;5017456;28;20109;-79
2022/09/12 04:57:00;;;;;;;34.80;31.10;;;;;;;;;;5031423;28;20054;-78
2022/09/12 04:59:26;;;;;;;37.42;32.03;;;;;;;;;;5033495;28;20046;-79
2022/09/12 05:01:53;;;;;;;37.58;33.03;;;;;;;;;;5013295;28;20038;-79
2022/09/12 05:04:19;;;;;;;38.90;33.65;;;;;;;;;;5037229;28;20101;-78
2022/09/12 05:06:46;;;;;;;37.22;32.97;;;;;;;;;;5020229;28;20172;-79
2022/09/12 05:09:13;;;;;;;39.78;33.42;;;;;;;;;;5032830;28;20037;-78
2022/09/12 05:11:40;;;;;;;35.90;32.03;;;;;;;;;;5030530;28;20077;-78
2022/09/12 05:14:07;;;;;;;34.25;30.55;;;;;;;;;;5037187;28;20049;-78
2022/09/12 05:16:33;;;;;;;37.80;32.17;;;;;;;;;;5038468;28;20036;-78
2022/09/12 05:18:59;;;;;;;37.58;30.95;;;;;;;;;;5023256;28;20067;-78
2022/09/12 05:21:26;;;;;;;34.83;31.13;;;;;;;;;;5022610;28;20046;-79
2022/09/12 05:23:58;;;;;;;37.30;33.00;;;;;;;;;;5031061;28;20069;-79
2022/09/12 05:26:24;;;;;;;39.60;34.15;;;;;;;;;;5036944;28;20042;-79
2022/09/12 05:28:51;;;;;;;38.90;33.58;;;;;;;;;;5030912;28;20042;-79
2022/09/12 05:31:18;;;;;;;42.42;34.60;;;;;;;;;;4999055;28;20061;-79
2022/09/12 05:33:45;;;;;;;38.38;34.17;;;;;;;;;;5005081;28;20070;-79
2022/09/12 05:36:12;;;;;;;44.38;34.85;;;;;;;;;;5004377;28;20026;-79
2022/09/12 05:38:39;;;;;;;37.65;33.05;;;;;;;;;;5013715;28;20034;-79
2022/09/12 05:41:06;;;;;;;38.22;31.83;;;;;;;;;;5012323;28;20047;-79
2022/09/12 05:43:36;;;;;;;37.13;32.25;;;;;;;;;;5011727;28;20073;-79
2022/09/12 05:46:09;;;;;;;37.87;32.40;;;;;;;;;;5011082;28;20049;-79
2022/09/12 05:48:36;;;;;;;36.42;31.08;;;;;;;;;;4988451;28;20301;-79
2022/09/12 05:51:08;;;;;;;33.35;29.95;;;;;;;;;;5014991;28;20105;-79
2022/09/12 05:53:35;;;;;;;35.47;31.80;;;;;;;;;;5015344;28;20038;-80
2022/09/12 05:56:09;;;;;;;33.97;30.30;;;;;;;;;;5014244;28;20098;-79
2022/09/12 05:58:36;;;;;;;31.15;27.88;;;;;;;;;;5016400;28;20055;-79
2022/09/12 06:01:12;;;;;;;32.90;29.42;;;;;;;;;;5003146;28;20069;-79
2022/09/12 06:03:43;;;;;;;31.90;28.58;;;;;;;;;;5012452;28;20051;-79
2022/09/12 06:06:12;;;;;;;32.85;29.38;;;;;;;;;;4993421;28;20143;-79
2022/09/12 06:08:39;;;;;;;33.15;28.77;;;;;;;;;;5009994;28;20103;-79
2022/09/12 06:11:05;;;;;;;36.67;29.80;;;;;;;;;;5018291;28;20033;-79
2022/09/12 06:13:33;;;;;;;34.20;30.48;;;;;;;;;;5013059;28;20086;-79
2022/09/12 06:16:03;;;;;;;34.78;30.45;;;;;;;;;;5009292;28;20098;-78
2022/09/12 06:18:29;;;;;;;34.20;30.60;;;;;;;;;;4995618;28;20034;-78
2022/09/12 06:20:55;;;;;;;35.70;29.83;;;;;;;;;;5014076;28;20051;-78
2022/09/12 06:23:21;;;;;;;34.90;31.10;;;;;;;;;;4994722;28;20085;-78
2022/09/12 06:25:50;;;;;;;35.60;31.80;;;;;;;;;;5014217;28;20050;-78
2022/09/12 06:28:17;;;;;;;34.35;30.65;;;;;;;;;;4996651;28;20038;-78
2022/09/12 06:30:43;;;;;;;35.03;31.25;;;;;;;;;;5012138;28;20054;-78
2022/09/12 06:33:09;;;;;;;36.08;32.25;;;;;;;;;;5029940;28;20050;-78
2022/09/12 06:35:36;;;;;;;37.90;32.42;;;;;;;;;;5015405;28;20065;-78
2022/09/12 06:38:02;;;;;;;36.95;32.92;;;;;;;;;;5015959;28;20052;-78
2022/09/12 06:40:28;;;;;;;35.08;30.48;;;;;;;;;;5035410;28;20042;-77
2022/09/12 06:42:54;;;;;;;38.88;33.58;;;;;;;;;;5038214;28;20114;-78
2022/09/12 06:45:21;;;;;;;41.47;33.33;;;;;;;;;;5037266;28;20018;-78
2022/09/12 06:47:47;;;;;;;38.63;34.33;;;;;;;;;;5037685;28;20058;-78
2022/09/12 06:50:13;;;;;;;37.85;33.90;;;;;;;;;;5035305;28;20092;-78
2022/09/12 06:52:39;;;;;;;36.38;32.05;;;;;;;;;;5034726;28;20042;-78
2022/09/12 06:55:06;;;;;;;41.80;34.28;;;;;;;;;;5051555;28;20053;-78
2022/09/12 06:57:35;;;;;;;43.17;34.42;;;;;;;;;;5015152;28;20076;-78
2022/09/12 07:00:03;;;;;;;41.83;36.50;;;;;;;;;;5032143;28;20072;-78
2022/09/12 07:02:29;;;;;;;43.08;36.38;;;;;;;;;;5033402;28;20053;-78
2022/09/12 07:04:55;;;;;;;42.55;35.47;;;;;;;;;;5033579;28;20053;-78
2022/09/12 07:07:21;;;;;;;38.25;33.22;;;;;;;;;;5016430;28;20053;-78
2022/09/12 07:09:48;;;;;;;43.90;36.97;;;;;;;;;;5033240;28;20069;-78
2022/09/12 07:12:14;;;;;;;44.20;35.97;;;;;;;;;;5033733;28;20068;-78
2022/09/12 07:14:40;;;;;;;44.20;36.92;;;;;;;;;;5031718;28;20045;-79
2022/09/12 07:17:07;;;;;;;39.45;34.88;;;;;;;;;;5023843;28;20052;-78
2022/09/12 07:19:33;;;;;;;44.63;36.35;;;;;;;;;;5001940;28;20061;-77
2022/09/12 07:21:59;;;;;;;44.10;36.30;;;;;;;;;;5013303;28;20139;-80
2022/09/12 07:24:25;;;;;;;40.47;34.40;;;;;;;;;;5019733;28;20085;-79
2022/09/12 07:26:52;;;;;;;41.67;34.33;;;;;;;;;;5016817;28;20385;-81
2022/09/12 07:29:18;;;;;;;39.90;32.92;;;;;;;;;;5019152;28;20057;-79
2022/09/12 07:31:44;;;;;;;38.80;34.00;;;;;;;;;;5022060;28;20054;-79
2022/09/12 07:34:10;;;;;;;40.10;33.97;;;;;;;;;;5017963;28;20053;-80
2022/09/12 07:36:38;;;;;;;40.38;33.58;;;;;;;;;;5022238;28;20042;-81
2022/09/12 07:39:04;;;;;;;37.88;32.80;;;;;;;;;;5006940;28;20100;-80
2022/09/12 07:41:31;;;;;;;40.10;33.65;;;;;;;;;;5024503;28;20368;-78
2022/09/12 07:43:58;;;;;;;37.50;32.90;;;;;;;;;;5006564;28;20058;-80
2022/09/12 07:46:25;;;;;;;38.20;32.83;;;;;;;;;;5025759;28;20049;-82
2022/09/12 07:48:52;;;;;;;36.65;30.90;;;;;;;;;;5021726;28;20053;-80
2022/09/12 07:51:18;;;;;;;36.05;28.58;;;;;;;;;;5016908;28;20423;-77
2022/09/12 07:53:45;;;;;;;30.60;27.27;;;;;;;;;;5021223;28;20038;-79
2022/09/12 07:56:12;;;;;;;30.50;26.77;;;;;;;;;;5006314;28;20046;-78
2022/09/12 07:58:39;;;;;;;30.08;26.38;;;;;;;;;;5021397;28;20061;-79
2022/09/12 08:01:09;;;;;;;32.72;25.88;;;;;;;;;;5023518;28;20213;-79
2022/09/12 08:03:35;;;;;;;29.70;26.52;;;;;;;;;;5029212;28;20065;-79
2022/09/12 08:06:07;;;;;;;28.33;25.17;;;;;;;;;;5011687;28;20053;-79
2022/09/12 08:08:34;;;;;;;30.13;25.55;;;;;;;;;;5030758;28;20045;-78
2022/09/12 08:11:01;;;;;;;29.00;25.85;;;;;;;;;;5024330;28;20042;-81
2022/09/12 08:13:30;;;;;;;27.33;24.42;;;;;;;;;;5021509;28;20064;-81
2022/09/12 08:15:58;;;;;;;26.13;23.33;;;;;;;;;;4976462;28;20484;-80
2022/09/12 08:18:24;;;;;;;26.13;22.75;;;;;;;;;;5015916;28;20504;-81
2022/09/12 08:20:55;;;;;;;25.30;22.63;;;;;;;;;;5013523;28;20076;-81
2022/09/12 08:23:23;;;;;;;25.38;21.98;;;;;;;;;;4968685;28;20045;-81
2022/09/12 08:25:49;;;;;;;27.17;20.20;;;;;;;;;;5010315;28;20456;-81
2022/09/12 08:28:15;;;;;;;23.17;20.40;;;;;;;;;;4997940;28;20153;-81
2022/09/12 08:30:41;;;;;;;22.48;19.45;;;;;;;;;;5013517;28;20050;-81
2022/09/12 08:33:07;;;;;;;23.10;19.83;;;;;;;;;;5006822;28;20415;-81
2022/09/12 08:35:33;;;;;;;23.75;19.25;;;;;;;;;;5001847;28;20458;-81
2022/09/12 08:37:59;;;;;;;20.83;18.17;;;;;;;;;;5014390;28;20443;-81
2022/09/12 08:40:25;;;;;;;22.02;19.15;;;;;;;;;;4998295;28;20054;-81
2022/09/12 08:43:02;;;;;;;19.58;17.35;;;;;;;;;;4997686;28;20042;-81
2022/09/12 08:45:36;;;;;;;19.88;17.25;;;;;;;;;;5016115;28;20050;-81
2022/09/12 08:48:03;;;;;;;19.65;16.77;;;;;;;;;;5015680;28;20081;-81
2022/09/12 08:50:29;;;;;;;21.65;16.65;;;;;;;;;;5013482;28;20046;-81
2022/09/12 08:52:58;;;;;;;18.80;16.75;;;;;;;;;;5013260;28;20034;-81
2022/09/12 08:55:26;;;;;;;18.38;16.00;;;;;;;;;;5017441;28;20050;-81
2022/09/12 08:57:52;;;;;;;20.38;16.83;;;;;;;;;;5014985;28;20046;-81
2022/09/12 09:00:18;;;;;;;18.65;16.27;;;;;;;;;;4993226;28;20049;-81
2022/09/12 09:02:47;;;;;;;18.13;16.05;;;;;;;;;;5016128;28;20065;-81
2022/09/12 09:05:29;;;;;;;21.50;16.15;;;;;;;;;;5006584;28;20049;-81
2022/09/12 09:08:04;;;;;;;19.20;17.10;;;;;;;;;;5016001;28;20391;-81
2022/09/12 09:10:51;;;;;;;20.48;16.60;;;;;;;;;;5017334;28;20100;-81
2022/09/12 09:16:27;;;;;;;21.23;17.95;;;;;;;;;;5018266;28;20061;-81
2022/09/12 09:18:54;;;;;;;20.38;17.60;;;;;;;;;;5019355;28;20054;-81
2022/09/12 09:21:23;;;;;;;21.13;18.02;;;;;;;;;;5001009;28;20038;-81
2022/09/12 09:23:53;;;;;;;23.42;18.50;;;;;;;;;;5019226;28;20057;-81
2022/09/12 09:26:45;;;;;;;21.95;18.15;;;;;;;;;;5018764;28;20496;-81
2022/09/12 09:29:18;;;;;;;23.73;19.98;;;;;;;;;;4981814;28;20049;-81
2022/09/12 09:31:47;;;;;;;24.90;19.55;;;;;;;;;;5014757;28;20050;-81
2022/09/12 09:34:21;;;;;;;23.27;19.60;;;;;;;;;;5017822;28;20040;-81
2022/09/12 09:36:49;;;;;;;24.65;20.50;;;;;;;;;;5017444;28;20133;-81
2022/09/12 09:39:15;;;;;;;26.40;22.20;;;;;;;;;;5019918;28;20050;-82
2022/09/12 09:41:49;;;;;;;26.02;21.70;;;;;;;;;;5021566;28;20045;-81
2022/09/12 09:44:16;;;;;;;27.58;22.48;;;;;;;;;;5019463;28;20053;-81
2022/09/12 09:46:42;;;;;;;27.27;21.88;;;;;;;;;;5021594;28;20045;-81
2022/09/12 09:49:12;;;;;;;30.88;25.30;;;;;;;;;;5022003;28;20053;-81
2022/09/12 09:51:39;;;;;;;27.52;23.10;;;;;;;;;;5024178;28;20046;-81
2022/09/12 09:54:07;;;;;;;26.88;22.77;;;;;;;;;;5025246;28;20046;-81
2022/09/12 09:56:41;;;;;;;33.63;26.90;;;;;;;;;;5026769;28;20045;-81
2022/09/12 09:59:11;;;;;;;30.27;25.42;;;;;;;;;;5010311;28;20041;-81
2022/09/12 10:01:43;;;;;;;31.83;26.03;;;;;;;;;;5010228;28;21379;-81
2022/09/12 10:04:16;;;;;;;39.10;30.45;;;;;;;;;;5024586;28;20050;-81
2022/09/12 10:06:43;;;;;;;35.10;27.77;;;;;;;;;;5005491;28;20065;-81
2022/09/12 10:09:21;;;;;;;39.53;29.85;;;;;;;;;;5022544;28;20432;-81
2022/09/12 10:11:48;;;;;;;39.28;30.60;;;;;;;;;;5009476;28;20054;-81
2022/09/12 10:14:33;;;;;;;41.03;31.10;;;;;;;;;;5023363;28;20129;-80
2022/09/12 10:17:00;;;;;;;40.47;31.17;;;;;;;;;;5019108;28;20094;-80
2022/09/12 10:19:39;;;;;;;40.45;32.47;;;;;;;;;;5022822;28;20038;-80
2022/09/12 10:22:06;;;;;;;38.72;29.58;;;;;;;;;;5024434;28;20050;-78
2022/09/12 10:24:35;;;;;;;38.75;30.67;;;;;;;;;;5026925;28;20061;-78
2022/09/12 10:27:15;;;;;;;41.47;31.92;;;;;;;;;;5031245;28;20078;-78
2022/09/12 10:29:47;;;;;;;39.63;31.90;;;;;;;;;;5021220;28;20061;-78
2022/09/12 10:32:19;;;;;;;37.45;29.70;;;;;;;;;;5026614;28;20038;-78
2022/09/12 10:34:45;;;;;;;37.75;29.98;;;;;;;;;;5016993;28;20112;-78
2022/09/12 10:37:21;;;;;;;34.15;28.40;;;;;;;;;;5010507;28;20046;-77
2022/09/12 10:39:52;;;;;;;41.88;29.05;;;;;;;;;;5007648;28;20452;-78
2022/09/12 10:42:38;;;;;;;35.25;27.98;;;;;;;;;;5006144;28;20038;-77
2022/09/12 10:45:05;;;;;;;34.92;27.67;;;;;;;;;;5011854;28;20403;-78
2022/09/12 10:47:31;;;;;;;32.75;26.30;;;;;;;;;;5014690;28;20081;-78
2022/09/12 10:50:17;;;;;;;33.40;25.17;;;;;;;;;;4994944;28;20038;-78
2022/09/12 10:52:44;;;;;;;32.60;25.08;;;;;;;;;;5013291;28;20129;-78
2022/09/12 10:55:16;;;;;;;30.48;24.98;;;;;;;;;;5014517;28;20042;-77
2022/09/12 10:58:00;;;;;;;30.33;24.38;;;;;;;;;;5011059;28;20054;-77
2022/09/12 11:00:29;;;;;;;29.85;24.05;;;;;;;;;;5011215;28;20050;-77
2022/09/12 11:03:14;;;;;;;32.08;25.13;;;;;;;;;;5015267;28;20058;-79
2022/09/12 11:05:48;;;;;;;29.48;23.77;;;;;;;;;;5022404;28;20117;-79
2022/09/12 11:08:34;;;;;;;36.70;25.23;;;;;;;;;;5018105;28;20100;-77
2022/09/12 11:11:06;;;;;;;26.45;20.23;;;;;;;;;;4995416;28;20046;-76
2022/09/12 11:13:44;;;;;;;35.00;19.92;;;;;;;;;;5006173;28;20046;-76
2022/09/12 11:16:20;;;;;;;30.00;22.27;;;;;;;;;;5012727;28;20042;-76
2022/09/12 11:19:05;;;;;;;32.50;22.75;;;;;;;;;;5011596;28;20101;-76
2022/09/12 11:21:54;;;;;;;31.98;21.23;;;;;;;;;;5010456;28;20042;-76
2022/09/12 11:24:28;;;;;;;30.63;20.65;;;;;;;;;;5015365;28;20054;-76
2022/09/12 11:27:06;;;;;;;29.25;22.70;;;;;;;;;;4990725;28;20053;-75
2022/09/12 11:29:48;;;;;;;37.95;20.92;;;;;;;;;;5019887;28;20072;-76
2022/09/12 11:32:40;;;;;;;32.97;20.90;;;;;;;;;;5027015;28;20111;-76
2022/09/12 11:35:18;;;;;;;28.17;21.95;;;;;;;;;;5013459;28;20097;-76
2022/09/12 11:38:04;;;;;;;32.33;22.00;;;;;;;;;;5026323;28;20067;-76
2022/09/12 11:40:39;;;;;;;33.90;20.67;;;;;;;;;;5001902;28;20041;-77
2022/09/12 11:43:11;;;;;;;26.05;19.45;;;;;;;;;;5028574;28;20042;-76
2022/09/12 11:45:41;;;;;;;22.25;18.90;;;;;;;;;;5013454;28;20049;-77
2022/09/12 11:48:11;;;;;;;26.00;18.35;;;;;;;;;;5021122;28;20049;-77
2022/09/12 11:50:37;;;;;;;24.40;19.35;;;;;;;;;;5018915;28;20046;-77
2022/09/12 11:53:30;;;;;;;25.63;18.77;;;;;;;;;;5015501;28;20026;-76
2022/09/12 11:56:04;;;;;;;27.48;20.05;;;;;;;;;;5011470;28;20769;-77
2022/09/12 11:58:30;;;;;;;24.15;17.00;;;;;;;;;;5019809;28;20052;-77
2022/09/12 12:00:58;;;;;;;19.85;15.88;;;;;;;;;;5026512;28;20049;-77
2022/09/12 12:03:32;;;;;;;21.77;16.80;;;;;;;;;;5010206;28;20046;-79
2022/09/12 12:06:06;;;;;;;19.92;15.63;;;;;;;;;;5029898;28;20053;-79
2022/09/12 12:08:37;;;;;;;22.08;16.73;;;;;;;;;;5028222;28;20077;-77
2022/09/12 12:11:03;;;;;;;;;;;;;;;;;;5027564;28;20413;-77
2022/09/12 12:13:50;;;;;;;23.15;14.85;;;;;;;;;;5027008;28;20379;-76
2022/09/12 12:16:23;;;;;;;18.98;14.93;;;;;;;;;;5018739;28;20377;-78
2022/09/12 12:19:03;;;;;;;29.83;16.67;;;;;;;;;;5025157;28;20050;-77
2022/09/12 12:21:32;;;;;;;22.30;16.67;;;;;;;;;;5029617;28;20053;-74
2022/09/12 12:24:04;;;;;;;20.08;16.13;;;;;;;;;;5032361;28;20105;-76
2022/09/12 12:26:42;;;;;;;23.02;15.75;;;;;;;;;;5026705;28;20054;-75
2022/09/12 12:29:16;;;;;;;21.42;14.13;;;;;;;;;;5028675;28;20133;-75
2022/09/12 12:31:58;;;;;;;19.45;15.77;;;;;;;;;;5023432;28;20152;-75
2022/09/12 12:34:34;;;;;;;21.63;16.33;;;;;;;;;;5016122;28;20038;-76
2022/09/12 12:37:19;;;;;;;20.90;16.38;;;;;;;;;;5019509;28;20527;-77
2022/09/12 12:39:49;;;;;;;17.58;11.45;;;;;;;;;;5015829;28;20086;-76
2022/09/12 12:42:41;;;;;;;18.38;12.23;;;;;;;;;;5022986;28;20085;-76
2022/09/12 12:45:30;;;;;;;15.13;9.90;;;;;;;;;;4991652;28;20057;-76
2022/09/12 12:48:00;;;;;;;13.88;8.95;;;;;;;;;;5019672;28;20065;-76
2022/09/12 12:50:28;;;;;;;15.18;9.20;;;;;;;;;;5016435;28;20046;-75
2022/09/12 12:53:17;;;;;;;16.73;8.57;;;;;;;;;;5028112;28;20050;-75
2022/09/12 12:55:43;;;;;;;11.07;7.40;;;;;;;;;;5013906;28;20054;-76
2022/09/12 12:58:27;;;;;;;17.33;8.90;;;;;;;;;;5007596;28;20107;-75
2022/09/12 13:01:12;;;;;;;18.02;11.57;;;;;;;;;;5032297;28;20053;-75
2022/09/12 13:03:40;;;;;;;15.65;11.30;;;;;;;;;;5022269;28;20042;-75
2022/09/12 13:06:09;;;;;;;15.77;11.25;;;;;;;;;;5024709;28;20038;-76
2022/09/12 13:08:38;;;;;;;18.08;9.10;;;;;;;;;;5030048;28;20049;-75
2022/09/12 13:11:09;;;;;;;12.80;9.32;;;;;;;;;;5028667;28;20050;-75
2022/09/12 13:13:49;;;;;;;19.25;10.77;;;;;;;;;;5023056;28;20041;-76
2022/09/12 13:16:29;;;;;;;13.52;9.98;;;;;;;;;;5031767;28;20037;-75
2022/09/12 13:18:56;;;;;;;14.57;9.52;;;;;;;;;;5031975;28;20511;-75
2022/09/12 13:21:22;;;;;;;13.13;8.88;;;;;;;;;;5010390;28;20046;-76
2022/09/12 13:24:02;;;;;;;12.82;9.15;;;;;;;;;;5016291;28;20054;-76
2022/09/12 13:26:32;;;;;;;13.45;8.13;;;;;;;;;;5029973;28;20049;-75
2022/09/12 13:29:18;;;;;;;13.93;8.77;;;;;;;;;;5031617;28;20058;-75
2022/09/12 13:31:58;;;;;;;11.48;9.00;;;;;;;;;;5011213;28;20129;-74
2022/09/12 13:34:30;;;;;;;13.85;10.30;;;;;;;;;;5018594;28;20042;-74
2022/09/12 13:37:08;;;;;;;12.05;9.60;;;;;;;;;;5027363;28;20064;-75
2022/09/12 13:39:50;;;;;;;14.57;7.72;;;;;;;;;;5030213;28;20098;-77
2022/09/12 13:42:36;;;;;;;12.27;6.15;;;;;;;;;;5032035;28;20065;-75
2022/09/12 13:45:17;;;;;;;9.88;7.30;;;;;;;;;;5025242;28;20057;-82
2022/09/12 13:47:45;;;;;;;11.13;7.13;;;;;;;;;;5029158;28;20041;-77
2022/09/12 13:50:16;;;;;;;14.75;8.32;;;;;;;;;;5015782;28;20106;-76
2022/09/12 13:52:45;;;;;;;12.38;7.78;;;;;;;;;;5038141;28;20025;-75
2022/09/12 13:55:23;;;;;;;10.50;7.63;;;;;;;;;;5017499;28;20119;-75
2022/09/12 13:57:55;;;;;;;12.40;8.27;;;;;;;;;;5037401;28;20029;-73
2022/09/12 14:00:21;;;;;;;14.43;8.60;;;;;;;;;;5037205;28;20030;-76
2022/09/12 14:02:48;;;;;;;14.32;9.00;;;;;;;;;;5038503;28;20038;-76
2022/09/12 14:05:24;;;;;;;13.38;8.18;;;;;;;;;;5033098;28;20056;-76
2022/09/12 14:07:55;;;;;;;10.20;6.90;;;;;;;;;;5009704;28;20073;-75
2022/09/12 14:10:24;;;;;;;12.85;7.13;;;;;;;;;;5020926;28;20042;-76
2022/09/12 14:12:51;;;;;;;10.35;6.35;;;;;;;;;;5016358;28;20052;-77
2022/09/12 14:15:25;;;;;;;12.15;6.63;;;;;;;;;;5031187;28;20026;-77
2022/09/12 14:17:53;;;;;;;13.20;6.85;;;;;;;;;;5019010;28;20148;-77
2022/09/12 14:20:22;;;;;;;11.43;6.55;;;;;;;;;;5030594;28;20042;-74
2022/09/12 14:22:49;;;;;;;10.57;7.07;;;;;;;;;;5032030;28;20032;-76
2022/09/12 14:25:19;;;;;;;9.68;6.55;;;;;;;;;;5025867;28;20057;-78
2022/09/12 14:27:48;;;;;;;10.52;6.28;;;;;;;;;;5033860;28;20041;-76
2022/09/12 14:30:22;;;;;;;8.35;6.10;;;;;;;;;;5035655;28;20109;-78
2022/09/12 14:33:06;;;;;;;9.23;6.50;;;;;;;;;;5027866;28;20080;-77
2022/09/12 14:35:33;;;;;;;10.57;6.10;;;;;;;;;;5031191;28;20034;-77
2022/09/12 14:38:06;;;;;;;13.50;7.00;;;;;;;;;;5035857;28;20101;-76
2022/09/12 14:40:39;;;;;;;15.18;6.45;;;;;;;;;;5020997;28;20081;-76